Time;durP1;ratioP1;P1;durP2;ratioP2;P2;SDS_P1;SDS_P2;PMS_P1;PMS_P2;Temp;Humidity;BMP_temperature;BMP_pressure;BME280_temperature;BME280_humidity;BME280_pressure;Samples;Min_cycle;Max_cycle;Signal;HPM_P1;HPM_P2
2022/10/03 00:00:10;;;;;;;1.38;0.98;;;12.10;99.90;;;;;;5071631;28;20228;-84
2022/10/03 00:03:11;;;;;;;0.70;0.70;;;12.10;99.90;;;;;;5071732;28;20209;-84
2022/10/03 00:06:01;;;;;;;0.90;0.90;;;12.00;99.90;;;;;;5071537;28;20246;-84
2022/10/03 00:08:56;;;;;;;0.82;0.82;;;12.00;99.90;;;;;;5071328;28;20212;-84
2022/10/03 00:11:35;;;;;;;1.58;1.33;;;12.00;99.90;;;;;;5071775;28;20232;-84
2022/10/03 00:14:14;;;;;;;1.60;1.35;;;12.00;99.90;;;;;;5071756;28;20270;-85
2022/10/03 00:16:49;;;;;;;1.00;1.00;;;12.00;99.90;;;;;;5071364;28;20232;-85
2022/10/03 00:19:29;;;;;;;1.30;1.15;;;12.00;99.90;;;;;;5071336;28;20230;-84
2022/10/03 00:22:10;;;;;;;1.63;1.25;;;12.00;99.90;;;;;;5071258;28;20220;-85
2022/10/03 00:24:50;;;;;;;1.13;1.02;;;12.00;99.90;;;;;;5070888;28;20209;-84
2022/10/03 00:27:29;;;;;;;0.93;0.93;;;12.00;99.90;;;;;;5071139;28;20235;-84
2022/10/03 00:30:09;;;;;;;1.23;1.13;;;12.00;99.90;;;;;;5071157;28;20213;-85
2022/10/03 00:32:49;;;;;;;0.98;0.98;;;12.00;99.90;;;;;;5071401;28;20220;-85
2022/10/03 00:35:36;;;;;;;1.10;1.00;;;12.00;99.90;;;;;;5071413;28;20227;-85
2022/10/03 00:38:21;;;;;;;1.67;1.42;;;12.00;99.90;;;;;;5073401;28;20261;-84
2022/10/03 00:41:17;;;;;;;1.45;1.23;;;12.00;99.90;;;;;;5073487;28;20211;-84
2022/10/03 00:44:12;;;;;;;0.88;0.88;;;12.00;99.90;;;;;;5073198;28;20287;-85
2022/10/03 00:47:12;;;;;;;0.80;0.80;;;12.00;99.90;;;;;;5073402;28;20236;-85
2022/10/03 00:50:07;;;;;;;1.27;1.17;;;12.00;99.90;;;;;;5059634;28;20205;-85
2022/10/03 00:53:13;;;;;;;1.67;1.58;;;12.00;99.90;;;;;;5073733;28;20205;-85
2022/10/03 00:56:14;;;;;;;1.95;1.70;;;12.00;99.90;;;;;;5072537;28;20228;-85
2022/10/03 00:59:01;;;;;;;1.17;1.08;;;12.00;99.90;;;;;;5072887;28;20228;-85
2022/10/03 01:01:35;;;;;;;1.17;1.08;;;12.00;99.90;;;;;;5073183;28;20201;-85
2022/10/03 01:04:34;;;;;;;1.13;1.10;;;12.00;99.90;;;;;;5073207;28;20231;-85
2022/10/03 01:07:12;;;;;;;3.05;1.48;;;11.90;99.90;;;;;;5072823;28;20236;-85
2022/10/03 01:09:57;;;;;;;2.35;1.65;;;12.00;99.90;;;;;;5072732;28;20208;-86
2022/10/03 01:12:45;;;;;;;1.67;1.27;;;12.00;99.90;;;;;;5072772;28;20223;-84
2022/10/03 01:15:21;;;;;;;1.40;1.30;;;12.00;99.90;;;;;;5072844;28;20221;-84
2022/10/03 01:18:07;;;;;;;1.00;1.00;;;12.00;99.90;;;;;;5072947;28;20243;-84
2022/10/03 01:20:44;;;;;;;1.58;1.48;;;12.00;99.90;;;;;;5072728;28;20215;-84
2022/10/03 01:23:37;;;;;;;0.90;0.90;;;12.00;99.90;;;;;;5072822;28;20208;-84
2022/10/03 01:26:21;;;;;;;0.95;0.95;;;12.00;99.90;;;;;;5072380;28;20220;-85
2022/10/03 01:31:46;;;;;;;1.90;1.30;;;12.00;99.90;;;;;;5073124;28;20216;-84
2022/10/03 01:34:23;;;;;;;0.90;0.90;;;12.00;99.90;;;;;;5072667;28;20216;-84
2022/10/03 01:37:04;;;;;;;1.13;1.13;;;12.00;99.90;;;;;;5072238;28;20243;-85
2022/10/03 01:39:39;;;;;;;1.40;1.30;;;12.10;99.90;;;;;;5072585;28;20219;-85
2022/10/03 01:42:12;;;;;;;1.20;1.10;;;12.10;99.90;;;;;;5072697;28;20201;-85
2022/10/03 01:44:55;;;;;;;1.20;1.10;;;12.10;99.90;;;;;;5072600;28;20201;-85
2022/10/03 01:47:31;;;;;;;1.45;1.25;;;12.10;99.90;;;;;;5072725;28;20229;-85
2022/10/03 01:50:07;;;;;;;5.03;1.45;;;12.10;99.90;;;;;;5075984;28;20192;-85
2022/10/03 01:52:45;;;;;;;0.95;0.95;;;12.10;99.90;;;;;;5078344;28;20213;-85
2022/10/03 01:55:22;;;;;;;10.05;1.88;;;12.10;99.90;;;;;;5072508;28;20221;-85
2022/10/03 01:57:59;;;;;;;2.72;1.23;;;12.10;99.90;;;;;;5072875;28;20228;-85
2022/10/03 02:00:36;;;;;;;1.50;1.30;;;12.10;99.90;;;;;;5072633;28;20260;-85
2022/10/03 02:03:11;;;;;;;1.33;1.23;;;12.10;99.90;;;;;;5072140;28;20272;-85
2022/10/03 02:05:49;;;;;;;2.05;1.27;;;12.10;99.90;;;;;;5072213;28;20204;-85
2022/10/03 02:08:29;;;;;;;1.65;1.30;;;12.10;99.90;;;;;;5074567;28;20204;-85
2022/10/03 02:11:02;;;;;;;2.00;1.23;;;12.10;99.90;;;;;;5076577;28;20209;-85
2022/10/03 02:13:42;;;;;;;2.70;1.90;;;12.10;99.90;;;;;;5076064;28;20205;-85
2022/10/03 02:16:20;;;;;;;2.75;1.52;;;12.20;99.90;;;;;;5076129;28;20229;-85
2022/10/03 02:18:55;;;;;;;1.65;1.55;;;12.20;99.90;;;;;;5075967;28;20212;-85
2022/10/03 02:21:26;;;;;;;1.30;1.20;;;12.20;99.90;;;;;;5076032;28;20208;-85
2022/10/03 02:24:18;;;;;;;1.27;1.17;;;12.20;99.90;;;;;;5076034;28;20212;-86
2022/10/03 02:27:07;;;;;;;1.25;1.20;;;12.20;99.90;;;;;;5075879;28;20235;-84
2022/10/03 02:30:14;;;;;;;1.48;1.38;;;12.30;99.90;;;;;;5075519;28;20213;-85
2022/10/03 02:33:38;;;;;;;1.80;1.65;;;12.30;99.90;;;;;;5075899;28;20211;-85
2022/10/03 02:36:37;;;;;;;1.83;1.33;;;12.30;99.90;;;;;;5075538;28;20232;-85
2022/10/03 02:39:30;;;;;;;1.52;1.05;;;12.30;99.90;;;;;;5042785;28;20237;-85
2022/10/03 02:42:30;;;;;;;1.80;1.65;;;12.30;99.90;;;;;;5075602;28;20216;-86
2022/10/03 02:45:28;;;;;;;1.75;1.60;;;12.30;99.90;;;;;;5075898;28;20204;-85
2022/10/03 02:48:42;;;;;;;1.63;1.52;;;12.20;99.90;;;;;;5042525;28;20229;-85
2022/10/03 02:51:45;;;;;;;1.48;1.38;;;12.20;99.90;;;;;;5032519;28;20213;-85
2022/10/03 02:54:59;;;;;;;2.08;1.50;;;12.20;99.90;;;;;;5049880;28;20212;-85
2022/10/03 02:58:02;;;;;;;1.98;1.40;;;12.10;99.90;;;;;;5074986;28;20236;-85
2022/10/03 03:00:43;;;;;;;4.80;1.60;;;12.10;99.90;;;;;;5056306;28;20238;-85
2022/10/03 03:03:47;;;;;;;1.25;1.13;;;12.10;99.90;;;;;;5075557;28;20209;-84
2022/10/03 03:06:46;;;;;;;1.50;1.40;;;12.10;99.90;;;;;;5075261;28;20247;-85
2022/10/03 03:09:47;;;;;;;1.80;1.60;;;12.10;99.90;;;;;;5074786;28;20201;-85
2022/10/03 03:12:49;;;;;;;4.07;1.63;;;12.10;99.90;;;;;;5075151;28;20209;-85
2022/10/03 03:16:02;;;;;;;3.13;1.58;;;12.10;99.90;;;;;;5075059;28;20225;-84
2022/10/03 03:18:36;;;;;;;1.73;1.60;;;12.10;99.90;;;;;;5074797;28;20324;-85
2022/10/03 03:21:23;;;;;;;1.83;1.38;;;12.20;99.90;;;;;;5075170;28;20219;-86
2022/10/03 03:24:15;;;;;;;1.60;1.50;;;12.20;99.90;;;;;;5074762;28;20204;-86
2022/10/03 03:27:04;;;;;;;3.47;1.92;;;12.20;99.90;;;;;;5074556;28;20240;-86
2022/10/03 03:29:43;;;;;;;1.50;1.20;;;12.20;99.90;;;;;;5074975;28;20213;-84
2022/10/03 03:32:20;;;;;;;1.48;1.38;;;12.20;99.90;;;;;;5074838;28;20216;-85
2022/10/03 03:34:59;;;;;;;1.45;1.35;;;12.20;99.90;;;;;;5074801;28;20208;-85
2022/10/03 03:37:34;;;;;;;1.30;1.20;;;12.20;99.90;;;;;;5074390;28;20227;-85
2022/10/03 03:40:18;;;;;;;1.48;1.33;;;12.20;99.90;;;;;;5074291;28;20208;-84
2022/10/03 03:43:03;;;;;;;2.35;1.90;;;12.10;99.90;;;;;;5074664;28;20217;-85
2022/10/03 03:45:45;;;;;;;1.35;1.25;;;12.10;99.90;;;;;;5074483;28;20236;-84
2022/10/03 03:48:50;;;;;;;1.80;1.50;;;12.10;99.90;;;;;;5074591;28;20216;-84
2022/10/03 03:51:32;;;;;;;2.15;1.67;;;12.10;99.90;;;;;;5074343;28;20208;-84
2022/10/03 03:54:33;;;;;;;1.65;1.40;;;12.10;99.90;;;;;;5074384;28;20205;-84
2022/10/03 03:57:25;;;;;;;1.30;1.20;;;12.10;99.90;;;;;;5074130;28;20232;-84
2022/10/03 04:00:08;;;;;;;2.35;1.75;;;12.10;99.90;;;;;;5071872;28;20205;-85
2022/10/03 04:03:08;;;;;;;2.53;1.80;;;12.00;99.90;;;;;;5074096;28;20211;-84
2022/10/03 04:05:51;;;;;;;2.97;1.85;;;12.00;99.90;;;;;;5074034;28;20209;-85
2022/10/03 04:08:42;;;;;;;3.67;1.48;;;12.00;99.90;;;;;;5073792;28;20212;-85
2022/10/03 04:11:21;;;;;;;2.40;1.40;;;12.00;99.90;;;;;;5074121;28;20205;-85
2022/10/03 04:14:23;;;;;;;4.38;2.28;;;12.00;99.90;;;;;;5073878;28;20216;-85
2022/10/03 04:20:13;;;;;;;5.43;2.22;;;11.90;99.90;;;;;;5073568;28;20220;-85
2022/10/03 04:22:59;;;;;;;2.80;1.50;;;11.90;99.90;;;;;;5074004;28;20220;-85
2022/10/03 04:25:45;;;;;;;1.88;1.63;;;11.90;99.90;;;;;;5073814;28;20212;-85
2022/10/03 04:28:35;;;;;;;3.85;2.13;;;11.90;99.90;;;;;;5073398;28;20237;-85
2022/10/03 04:31:25;;;;;;;1.85;1.58;;;11.90;99.90;;;;;;5073124;28;20224;-85
2022/10/03 04:34:07;;;;;;;3.45;1.73;;;11.80;99.90;;;;;;5073789;28;20197;-85
2022/10/03 04:36:56;;;;;;;1.77;1.52;;;11.80;99.90;;;;;;5073228;28;20227;-85
2022/10/03 04:39:36;;;;;;;2.10;1.90;;;11.80;99.90;;;;;;5073303;28;20201;-85
2022/10/03 04:42:13;;;;;;;1.77;1.65;;;11.80;99.90;;;;;;5073356;28;20208;-85
2022/10/03 04:44:57;;;;;;;2.10;1.85;;;11.80;99.90;;;;;;5073213;28;20208;-85
2022/10/03 04:47:33;;;;;;;3.97;2.03;;;11.80;99.90;;;;;;5073455;28;20228;-84
2022/10/03 04:50:07;;;;;;;2.10;1.42;;;11.70;99.90;;;;;;5073037;28;20204;-84
2022/10/03 04:52:42;;;;;;;1.70;1.60;;;11.70;99.90;;;;;;5073133;28;20200;-84
2022/10/03 04:55:28;;;;;;;1.98;1.60;;;11.70;99.90;;;;;;5073124;28;20209;-84
2022/10/03 04:58:01;;;;;;;2.75;1.65;;;11.70;99.90;;;;;;5073044;28;20225;-84
2022/10/03 05:00:40;;;;;;;1.02;1.02;;;11.70;99.90;;;;;;5073220;28;20212;-84
2022/10/03 05:03:21;;;;;;;1.65;1.50;;;11.80;99.90;;;;;;5073305;28;20251;-84
2022/10/03 05:05:54;;;;;;;1.60;1.40;;;11.80;99.90;;;;;;5072798;28;20205;-85
2022/10/03 05:08:38;;;;;;;1.63;1.52;;;11.70;99.90;;;;;;5072820;28;20213;-85
2022/10/03 05:11:20;;;;;;;2.08;1.80;;;11.80;99.90;;;;;;5073431;28;20201;-84
2022/10/03 05:14:01;;;;;;;1.45;1.30;;;11.80;99.90;;;;;;5073112;28;20213;-86
2022/10/03 05:16:41;;;;;;;4.25;1.75;;;11.80;99.90;;;;;;5072651;28;20232;-84
2022/10/03 05:19:54;;;;;;;2.00;1.38;;;11.90;99.90;;;;;;5072729;28;20237;-84
2022/10/03 05:22:37;;;;;;;1.50;1.23;;;11.90;99.90;;;;;;5072839;28;20212;-84
2022/10/03 05:25:17;;;;;;;2.75;1.48;;;11.90;99.90;;;;;;5072643;28;20201;-85
2022/10/03 05:27:51;;;;;;;1.10;1.00;;;11.90;99.90;;;;;;5072500;28;20233;-85
2022/10/03 05:30:34;;;;;;;2.70;1.83;;;12.00;99.90;;;;;;5072471;28;20212;-84
2022/10/03 05:33:11;;;;;;;1.65;1.50;;;11.90;99.90;;;;;;5072339;28;20197;-84
2022/10/03 05:36:01;;;;;;;2.17;1.50;;;11.90;99.90;;;;;;5072608;28;20213;-84
2022/10/03 05:38:57;;;;;;;1.60;1.50;;;11.90;99.90;;;;;;5072035;28;20229;-84
2022/10/03 05:41:29;;;;;;;2.80;1.50;;;11.90;99.90;;;;;;5072869;28;20205;-84
2022/10/03 05:44:04;;;;;;;2.20;1.67;;;12.00;99.90;;;;;;5076323;28;20197;-85
2022/10/03 05:46:48;;;;;;;2.85;1.92;;;12.00;99.90;;;;;;5076712;28;20224;-85
2022/10/03 05:49:44;;;;;;;6.10;1.80;;;12.10;99.90;;;;;;5076159;28;20200;-85
2022/10/03 05:52:45;;;;;;;5.18;2.13;;;12.10;99.90;;;;;;5076906;28;20201;-85
2022/10/03 05:55:29;;;;;;;1.85;1.48;;;12.10;99.90;;;;;;5061772;28;20211;-84
2022/10/03 05:58:28;;;;;;;2.25;1.60;;;12.10;99.90;;;;;;5076574;28;20220;-85
2022/10/03 06:01:30;;;;;;;1.83;1.60;;;12.10;99.90;;;;;;5076824;28;20197;-85
2022/10/03 06:04:11;;;;;;;1.73;1.63;;;12.10;99.90;;;;;;5072010;28;20212;-85
2022/10/03 06:06:56;;;;;;;5.32;1.60;;;12.10;99.90;;;;;;5076705;28;20240;-85
2022/10/03 06:10:16;;;;;;;1.85;1.60;;;12.10;99.90;;;;;;5076073;28;20212;-85
2022/10/03 06:12:51;;;;;;;3.22;1.58;;;12.10;99.90;;;;;;5014393;28;20224;-85
2022/10/03 06:15:39;;;;;;;3.78;1.55;;;12.20;99.90;;;;;;5014410;28;20207;-85
2022/10/03 06:18:42;;;;;;;3.55;1.90;;;12.20;99.90;;;;;;5061294;28;20225;-85
2022/10/03 06:21:41;;;;;;;3.00;1.50;;;12.20;99.90;;;;;;5076241;28;20215;-84
2022/10/03 06:24:51;;;;;;;3.90;1.48;;;12.30;99.90;;;;;;5043000;28;20205;-85
2022/10/03 06:27:51;;;;;;;2.03;1.50;;;12.30;99.90;;;;;;5075862;28;20236;-85
2022/10/03 06:30:23;;;;;;;1.80;1.40;;;12.40;99.90;;;;;;5074257;28;20217;-85
2022/10/03 06:33:24;;;;;;;3.08;1.63;;;12.40;99.90;;;;;;5076095;28;20209;-84
2022/10/03 06:36:10;;;;;;;4.90;1.70;;;12.40;99.90;;;;;;5075721;28;20205;-85
2022/10/03 06:39:22;;;;;;;2.83;1.73;;;12.50;99.90;;;;;;5075274;28;20228;-84
2022/10/03 06:42:44;;;;;;;3.63;1.38;;;12.50;99.90;;;;;;5038733;28;20209;-85
2022/10/03 06:45:55;;;;;;;2.88;1.50;;;12.60;99.90;;;;;;5075859;28;20200;-85
2022/10/03 06:49:00;;;;;;;2.78;1.63;;;12.70;99.90;;;;;;5062203;28;20256;-84
2022/10/03 06:51:54;;;;;;;3.40;1.85;;;12.80;99.90;;;;;;5075299;28;20201;-84
2022/10/03 06:55:11;;;;;;;2.33;1.40;;;12.80;99.90;;;;;;5075110;28;20208;-85
2022/10/03 06:58:10;;;;;;;7.05;2.13;;;12.90;99.90;;;;;;5013552;28;20452;-85
2022/10/03 07:00:57;;;;;;;3.85;1.60;;;13.00;99.90;;;;;;5005470;28;20214;-85
2022/10/03 07:03:50;;;;;;;2.25;1.08;;;13.00;99.90;;;;;;5069587;28;20202;-85
2022/10/03 07:06:48;;;;;;;3.08;1.40;;;13.10;99.90;;;;;;5075021;28;20228;-85
2022/10/03 07:10:11;;;;;;;1.85;1.38;;;13.20;99.90;;;;;;5074965;28;20201;-85
2022/10/03 07:13:03;;;;;;;5.60;1.60;;;13.20;99.90;;;;;;5075770;28;20211;-85
2022/10/03 07:15:48;;;;;;;3.17;1.90;;;13.20;99.90;;;;;;5075221;28;20217;-85
2022/10/03 07:19:06;;;;;;;8.63;1.65;;;13.20;99.90;;;;;;5074505;28;20277;-85
2022/10/03 07:22:12;;;;;;;1.42;1.23;;;13.10;99.90;;;;;;5075032;28;20217;-85
2022/10/03 07:25:13;;;;;;;1.20;1.10;;;13.20;99.90;;;;;;5075115;28;20223;-85
2022/10/03 07:27:55;;;;;;;3.58;1.58;;;13.20;99.90;;;;;;5074773;28;20239;-85
2022/10/03 07:30:25;;;;;;;4.28;2.22;;;13.30;99.90;;;;;;5074398;28;20205;-85
2022/10/03 07:33:30;;;;;;;2.97;1.40;;;13.40;99.90;;;;;;5074530;28;20220;-84
2022/10/03 07:39:56;;;;;;;1.38;1.25;;;13.70;99.90;;;;;;5074262;28;20239;-85
2022/10/03 07:42:46;;;;;;;2.92;1.05;;;13.80;99.90;;;;;;5074883;28;20212;-84
2022/10/03 07:45:36;;;;;;;3.17;1.65;;;13.80;99.90;;;;;;5074559;28;20209;-84
2022/10/03 07:48:40;;;;;;;2.58;1.50;;;13.80;99.90;;;;;;5074064;28;20225;-85
2022/10/03 07:51:16;;;;;;;1.05;0.98;;;13.80;99.90;;;;;;5074523;28;20211;-85
2022/10/03 07:54:26;;;;;;;1.55;1.20;;;13.80;99.90;;;;;;5074742;28;20212;-84
2022/10/03 07:57:13;;;;;;;1.60;1.00;;;13.80;99.90;;;;;;5071672;28;20274;-85
2022/10/03 08:00:10;;;;;;;1.85;1.52;;;13.90;99.90;;;;;;5071651;28;20216;-84
2022/10/03 08:03:15;;;;;;;2.38;1.27;;;13.90;99.90;;;;;;5067502;28;20219;-84
2022/10/03 08:05:55;;;;;;;1.58;1.05;;;14.10;99.90;;;;;;5070832;28;20213;-84
2022/10/03 08:08:57;;;;;;;1.88;1.27;;;14.10;99.90;;;;;;5071634;28;20223;-85
2022/10/03 08:11:45;;;;;;;2.08;1.20;;;14.10;99.90;;;;;;5071619;28;20220;-84
2022/10/03 08:14:19;;;;;;;4.32;1.63;;;14.20;99.90;;;;;;5071942;28;20208;-85
2022/10/03 08:17:13;;;;;;;1.15;1.05;;;14.30;99.90;;;;;;5071879;28;20236;-85
2022/10/03 08:20:14;;;;;;;3.88;1.42;;;14.40;99.90;;;;;;5068496;28;20225;-85
2022/10/03 08:22:54;;;;;;;1.00;1.00;;;14.40;99.90;;;;;;5046418;28;20207;-85
2022/10/03 08:25:39;;;;;;;3.72;1.23;;;14.50;99.90;;;;;;5071293;28;20216;-85
2022/10/03 08:28:38;;;;;;;2.63;1.45;;;14.50;99.90;;;;;;5071125;28;20240;-85
2022/10/03 08:31:46;;;;;;;3.97;1.15;;;14.60;99.90;;;;;;5060179;28;20287;-85
2022/10/03 08:34:34;;;;;;;3.80;1.77;;;14.60;99.90;;;;;;5045915;28;20205;-85
2022/10/03 08:37:38;;;;;;;2.03;1.50;;;14.60;99.90;;;;;;5071164;28;20236;-85
2022/10/03 08:40:45;;;;;;;1.55;1.25;;;14.60;99.90;;;;;;5070692;28;20205;-85
2022/10/03 08:43:56;;;;;;;1.20;1.10;;;14.90;99.90;;;;;;5071128;28;20216;-85
2022/10/03 08:46:54;;;;;;;2.95;1.10;;;15.10;99.90;;;;;;5045506;28;20237;-85
2022/10/03 08:50:03;;;;;;;1.20;1.10;;;15.10;99.90;;;;;;5070027;28;20209;-84
2022/10/03 08:52:48;;;;;;;1.02;0.93;;;15.20;99.90;;;;;;5071068;28;20216;-85
2022/10/03 08:55:45;;;;;;;6.13;1.58;;;15.30;99.90;;;;;;5071078;28;20205;-85
2022/10/03 08:58:50;;;;;;;11.73;1.67;;;15.30;99.90;;;;;;5058213;28;20221;-84
2022/10/03 09:01:29;;;;;;;2.03;1.17;;;15.40;99.90;;;;;;5054362;28;20213;-85
2022/10/03 09:04:54;;;;;;;2.40;1.23;;;15.50;99.90;;;;;;5071252;28;20254;-85
2022/10/03 09:07:59;;;;;;;1.48;1.17;;;15.70;99.90;;;;;;5070689;28;20251;-85
2022/10/03 09:10:59;;;;;;;1.98;1.30;;;15.80;99.90;;;;;;5070639;28;20274;-85
2022/10/03 09:14:03;;;;;;;1.10;0.98;;;16.20;99.90;;;;;;5066079;28;20220;-85
2022/10/03 09:17:05;;;;;;;1.00;0.90;;;16.50;99.90;;;;;;5030182;28;20232;-84
2022/10/03 09:20:03;;;;;;;4.55;1.27;;;16.60;99.90;;;;;;5038954;28;20233;-84
2022/10/03 09:23:14;;;;;;;1.48;1.08;;;16.50;99.90;;;;;;5070693;28;20209;-84
2022/10/03 09:26:05;;;;;;;5.57;1.10;;;16.50;99.90;;;;;;5008968;28;20219;-85
2022/10/03 09:29:08;;;;;;;3.25;1.10;;;16.40;99.90;;;;;;5070219;28;20201;-84
2022/10/03 09:32:15;;;;;;;1.70;1.33;;;16.30;99.90;;;;;;5070511;28;20212;-85
2022/10/03 09:35:12;;;;;;;1.88;1.27;;;16.50;99.90;;;;;;5070750;28;20215;-88
2022/10/03 09:38:03;;;;;;;0.95;0.90;;;17.00;99.90;;;;;;5030673;28;20282;-88
2022/10/03 09:41:12;;;;;;;2.58;1.02;;;17.00;99.90;;;;;;5070378;28;20232;-88
2022/10/03 09:44:13;;;;;;;1.67;1.33;;;16.90;99.90;;;;;;5067035;28;20217;-89
2022/10/03 09:50:23;;;;;;;1.02;0.88;;;17.30;99.90;;;;;;5068115;28;20216;-89
2022/10/03 09:53:20;;;;;;;1.58;1.08;;;17.60;99.90;;;;;;5060561;28;20292;-89
2022/10/03 09:56:19;;;;;;;0.95;0.85;;;17.60;99.90;;;;;;5071202;28;20213;-89
2022/10/03 09:59:12;;;;;;;3.08;1.02;;;17.30;99.90;;;;;;5071879;28;20228;-89
2022/10/03 10:01:49;;;;;;;1.52;1.15;;;17.40;99.90;;;;;;5072811;28;20311;-88
2022/10/03 10:04:41;;;;;;;1.10;0.75;;;17.50;99.90;;;;;;5072510;28;20215;-87
2022/10/03 10:07:57;;;;;;;5.28;1.38;;;17.70;99.90;;;;;;5072437;28;20311;-87
2022/10/03 10:10:57;;;;;;;1.60;1.08;;;18.00;99.90;;;;;;5071944;28;20197;-88
2022/10/03 10:14:04;;;;;;;0.57;0.57;;;18.30;99.90;;;;;;5072353;28;20205;-88
2022/10/03 10:16:51;;;;;;;0.88;0.73;;;18.30;99.90;;;;;;5072739;28;20221;-87
2022/10/03 10:19:44;;;;;;;0.93;0.93;;;18.70;99.90;;;;;;5072793;28;20225;-88
2022/10/03 10:23:10;;;;;;;0.63;0.63;;;18.60;99.90;;;;;;5072384;28;20213;-88
2022/10/03 10:26:18;;;;;;;1.05;0.85;;;18.60;99.90;;;;;;5072334;28;20212;-88
2022/10/03 10:29:17;;;;;;;1.55;1.00;;;18.90;99.90;;;;;;5073590;28;20201;-88
2022/10/03 10:32:25;;;;;;;0.98;0.82;;;18.70;99.90;;;;;;5076171;28;20227;-88
2022/10/03 10:35:45;;;;;;;1.20;1.10;;;18.60;99.90;;;;;;5075652;28;20209;-87
2022/10/03 10:38:59;;;;;;;1.75;1.13;;;18.80;99.90;;;;;;4993930;28;20242;-88
2022/10/03 10:42:09;;;;;;;1.08;1.00;;;18.60;99.50;;;;;;4936619;29;20214;-88
2022/10/03 10:45:10;;;;;;;1.13;1.08;;;17.90;99.90;;;;;;5075955;28;20204;-88
2022/10/03 10:48:20;;;;;;;0.77;0.75;;;17.50;99.90;;;;;;5075756;28;20224;-87
2022/10/03 10:51:21;;;;;;;2.45;1.23;;;17.10;99.90;;;;;;5075506;28;20212;-88
2022/10/03 10:54:15;;;;;;;1.20;1.10;;;16.80;99.90;;;;;;5075866;28;20216;-88
2022/10/03 10:57:06;;;;;;;1.00;1.00;;;16.70;99.90;;;;;;5075672;28;20240;-88
2022/10/03 11:00:08;;;;;;;4.05;1.15;;;16.80;99.90;;;;;;5075371;28;20225;-87
2022/10/03 11:03:08;;;;;;;2.15;0.80;;;16.60;99.90;;;;;;5075396;28;20208;-88
2022/10/03 11:06:16;;;;;;;0.93;0.93;;;16.60;99.90;;;;;;5072172;28;20200;-89
2022/10/03 11:09:14;;;;;;;1.10;1.00;;;16.40;99.90;;;;;;5058091;28;20207;-88
2022/10/03 11:12:21;;;;;;;0.80;0.80;;;16.40;99.90;;;;;;5075046;28;20216;-88
2022/10/03 11:15:23;;;;;;;1.15;0.80;;;16.90;99.90;;;;;;5075338;28;20205;-88
2022/10/03 11:18:38;;;;;;;1.08;0.95;;;17.70;99.90;;;;;;5075146;28;20232;-88
2022/10/03 11:21:47;;;;;;;0.80;0.80;;;18.50;99.90;;;;;;5075276;28;20278;-88
2022/10/03 11:24:48;;;;;;;1.17;0.93;;;18.70;99.90;;;;;;5075221;28;20201;-88
2022/10/03 11:27:52;;;;;;;0.80;0.80;;;19.30;99.90;;;;;;5049514;28;20240;-87
2022/10/03 11:30:47;;;;;;;0.80;0.80;;;19.70;99.90;;;;;;5074883;28;20231;-87
2022/10/03 11:34:07;;;;;;;1.52;0.98;;;19.80;99.90;;;;;;5074990;28;20205;-87
2022/10/03 11:37:06;;;;;;;0.98;0.98;;;19.40;98.50;;;;;;5074819;28;20228;-87
2022/10/03 11:39:45;;;;;;;1.38;1.20;;;18.90;98.80;;;;;;5073601;28;20227;-89
2022/10/03 11:42:26;;;;;;;0.88;0.88;;;18.60;99.80;;;;;;5074263;28;20225;-87
2022/10/03 11:45:00;;;;;;;0.50;0.50;;;18.00;99.80;;;;;;5074802;28;20212;-87
2022/10/03 11:47:49;;;;;;;0.93;0.93;;;17.60;99.90;;;;;;5074988;28;20225;-88
2022/10/03 11:50:37;;;;;;;1.63;1.17;;;17.30;99.90;;;;;;5074536;28;20197;-87
2022/10/03 11:53:17;;;;;;;0.68;0.68;;;17.10;99.90;;;;;;5074596;28;20205;-88
2022/10/03 11:55:51;;;;;;;3.25;1.10;;;17.00;99.90;;;;;;5074546;28;20299;-87
2022/10/03 11:58:33;;;;;;;1.10;1.00;;;16.90;99.90;;;;;;5074205;28;20212;-87
2022/10/03 12:01:24;;;;;;;0.80;0.80;;;17.20;99.90;;;;;;5074277;28;20225;-87
2022/10/03 12:04:02;;;;;;;0.82;0.82;;;17.30;99.90;;;;;;5074409;28;20213;-87
2022/10/03 12:09:46;;;;;;;0.70;0.65;;;17.50;99.90;;;;;;5073787;28;20224;-87
2022/10/03 12:12:27;;;;;;;1.75;0.80;;;17.30;99.90;;;;;;5073797;28;20223;-88
2022/10/03 12:15:01;;;;;;;2.97;1.20;;;17.70;99.90;;;;;;5074507;28;20217;-87
2022/10/03 12:17:33;;;;;;;0.75;0.75;;;18.20;99.90;;;;;;5074087;28;20225;-88
2022/10/03 12:20:05;;;;;;;0.80;0.80;;;18.00;99.90;;;;;;5073824;28;20225;-87
2022/10/03 12:22:45;;;;;;;0.70;0.70;;;18.40;99.90;;;;;;5073823;28;20209;-87
2022/10/03 12:25:22;;;;;;;0.60;0.60;;;18.70;99.90;;;;;;5073844;28;20220;-88
2022/10/03 12:28:06;;;;;;;0.70;0.70;;;18.20;99.90;;;;;;5073903;28;20241;-88
2022/10/03 12:30:41;;;;;;;0.43;0.35;;;17.80;99.90;;;;;;5073666;28;20208;-88
2022/10/03 12:33:44;;;;;;;0.50;0.50;;;17.80;99.90;;;;;;5073601;28;20208;-88
2022/10/03 12:36:15;;;;;;;1.08;0.88;;;18.40;99.90;;;;;;5073647;28;20225;-88
2022/10/03 12:38:57;;;;;;;1.20;0.80;;;18.60;99.90;;;;;;5073115;28;20215;-87
2022/10/03 12:41:49;;;;;;;0.70;0.70;;;19.00;99.90;;;;;;5073229;28;20229;-88
2022/10/03 12:44:33;;;;;;;0.73;0.73;;;19.20;99.90;;;;;;5071133;28;20213;-88
2022/10/03 12:47:14;;;;;;;0.82;0.82;;;19.00;99.70;;;;;;5073422;28;20233;-88
2022/10/03 12:49:53;;;;;;;0.60;0.60;;;19.10;99.90;;;;;;5072822;28;20209;-88
2022/10/03 12:52:26;;;;;;;0.90;0.73;;;19.00;99.90;;;;;;5073455;28;20220;-88
2022/10/03 12:55:12;;;;;;;1.30;0.98;;;19.10;99.80;;;;;;5074647;28;20216;-88
2022/10/03 12:57:50;;;;;;;1.23;0.98;;;19.30;99.50;;;;;;5074163;28;20233;-87
2022/10/03 13:00:25;;;;;;;1.00;0.90;;;19.30;99.70;;;;;;5074076;28;20225;-88
2022/10/03 13:03:17;;;;;;;1.02;0.95;;;19.50;99.20;;;;;;5075099;28;20223;-87
2022/10/03 13:06:16;;;;;;;1.10;0.82;;;19.20;98.30;;;;;;5073785;28;20206;-88
2022/10/03 13:09:00;;;;;;;0.98;0.88;;;19.20;98.40;;;;;;5045662;28;20208;-88
2022/10/03 13:11:38;;;;;;;0.77;0.70;;;19.20;98.00;;;;;;5073387;28;20205;-88
2022/10/03 13:14:27;;;;;;;1.35;0.98;;;19.10;98.00;;;;;;5073016;28;20225;-87
2022/10/03 13:17:05;;;;;;;0.57;0.57;;;18.70;97.70;;;;;;5073302;28;20240;-88
2022/10/03 13:19:47;;;;;;;0.80;0.77;;;18.80;97.70;;;;;;5072757;28;20211;-88
2022/10/03 13:22:29;;;;;;;0.43;0.43;;;18.90;97.60;;;;;;5073109;28;20208;-89
2022/10/03 13:25:03;;;;;;;0.70;0.70;;;19.00;97.00;;;;;;5072695;28;20213;-88
2022/10/03 13:27:39;;;;;;;1.67;1.15;;;19.20;96.60;;;;;;5072504;28;20240;-88
2022/10/03 13:30:18;;;;;;;0.90;0.90;;;19.30;96.60;;;;;;5072828;28;20204;-88
2022/10/03 13:32:52;;;;;;;0.60;0.60;;;19.20;96.50;;;;;;5072803;28;20201;-88
2022/10/03 13:38:41;;;;;;;0.60;0.60;;;19.20;96.80;;;;;;5072666;28;20217;-88
2022/10/03 13:41:23;;;;;;;0.80;0.80;;;18.90;97.40;;;;;;5072495;28;20224;-88
2022/10/03 13:44:00;;;;;;;0.80;0.80;;;18.60;97.90;;;;;;5072398;28;20228;-88
2022/10/03 13:46:37;;;;;;;1.20;1.10;;;18.30;98.80;;;;;;5072812;28;20228;-88
2022/10/03 13:49:17;;;;;;;0.73;0.73;;;18.00;99.00;;;;;;5072492;28;20200;-88
2022/10/03 13:51:56;;;;;;;3.45;1.58;;;17.60;99.20;;;;;;5072678;28;20197;-89
2022/10/03 13:54:48;;;;;;;0.52;0.52;;;17.10;99.50;;;;;;5072522;28;20208;-88
2022/10/03 13:57:23;;;;;;;0.68;0.68;;;16.90;99.90;;;;;;5072980;28;20225;-89
2022/10/03 14:00:07;;;;;;;0.80;0.80;;;16.50;99.90;;;;;;5072741;28;20212;-89
2022/10/03 14:03:00;;;;;;;0.90;0.90;;;16.20;99.90;;;;;;5072624;28;20201;-89
2022/10/03 14:05:57;;;;;;;0.90;0.90;;;16.00;99.90;;;;;;5076670;28;20247;-89
2022/10/03 14:08:46;;;;;;;24.60;1.90;;;15.70;99.90;;;;;;5076268;28;20212;-89
2022/10/03 14:11:30;;;;;;;1.80;0.98;;;15.50;99.90;;;;;;5076354;28;20220;-89
2022/10/03 14:14:18;;;;;;;0.77;0.77;;;15.40;99.90;;;;;;5076427;28;20224;-88
2022/10/03 14:16:54;;;;;;;0.80;0.80;;;15.50;99.90;;;;;;5077438;28;20236;-88
2022/10/03 14:19:40;;;;;;;0.57;0.57;;;15.60;99.90;;;;;;5078430;28;20212;-88
2022/10/03 14:22:32;;;;;;;0.75;0.75;;;15.60;99.90;;;;;;5077914;28;20229;-88
2022/10/03 14:25:12;;;;;;;0.82;0.82;;;15.80;99.90;;;;;;5077235;28;20209;-89
2022/10/03 14:27:54;;;;;;;0.85;0.85;;;15.80;99.90;;;;;;5076366;28;20302;-89
2022/10/03 14:30:24;;;;;;;1.10;1.00;;;15.90;99.90;;;;;;5076148;28;20283;-89
2022/10/03 14:33:03;;;;;;;1.00;0.80;;;15.90;99.90;;;;;;5076023;28;20202;-89
2022/10/03 14:35:38;;;;;;;1.15;1.05;;;15.80;99.90;;;;;;5075597;28;20213;-89
2022/10/03 14:38:22;;;;;;;1.10;0.95;;;15.80;99.90;;;;;;5075724;28;20235;-89
2022/10/03 14:40:52;;;;;;;2.17;1.35;;;15.60;99.90;;;;;;5075562;28;20229;-89
2022/10/03 14:43:31;;;;;;;1.77;0.95;;;15.60;99.90;;;;;;5075578;28;20217;-88
2022/10/03 14:46:01;;;;;;;1.95;1.23;;;15.60;99.90;;;;;;5075989;28;20208;-88
2022/10/03 14:48:36;;;;;;;1.42;1.20;;;15.50;99.90;;;;;;5075394;28;20207;-88
2022/10/03 14:51:13;;;;;;;1.17;0.98;;;15.50;99.90;;;;;;5075712;28;20208;-89
2022/10/03 14:53:54;;;;;;;1.00;1.00;;;15.20;99.90;;;;;;5076131;28;20216;-88
2022/10/03 14:56:23;;;;;;;0.70;0.70;;;14.90;99.90;;;;;;5075592;28;20225;-88
2022/10/03 14:58:54;;;;;;;1.40;1.30;;;14.60;99.90;;;;;;5075517;28;20285;-88